x

N01 - Northeast Channel (44024) Wave Buoy

10:04am - Wed 22nd Oct 2014 All times are ADT. -3 hours from GMT.

  • Sig Wave height 10.5ft
  • Peak Period 8s
  • Wind
    16mph, 20mph gusts
  • Sea Temp 67°f
  • Air Temp 67°f
  • Sea Pressure 1011.8mb
  • N01 - Northeast Channel
  • N01 - Northeast Channel

More Historic Weather Station data

Upgrade to MSW Pro to gain access to the past 30 days of data for over 8000 Wavebouys and Weather Stations around the globe.

Join Pro

Comparision Forecast

View Surf forecast
   
Wed 10/22 10:04am 10.5ft 8s 16 20 mph 1011.8mb 67f 67f
9:04am 12ft 8s 20 22 mph 1011.1mb 65f 66f
8:04am 11.5ft 6s 20 27 mph 1010.2mb 61f 65f
7:04am 11ft 6s 31 38 mph 1010.4mb 60f 62f
6:04am 10ft 6s 29 36 mph 1011.6mb 60f 61f
5:04am 9ft 8s 29 34 mph 1012.1mb 60f 62f
3:04am 7ft 6s 20 27 mph 1013.5mb 59f 62f
1:04am 4.5ft 5s 25 29 mph 1014.8mb 61f 62f
12:04am 6ft 5s 20 25 mph 1016.1mb 61f 63f
Tue 10/21 11:04pm 5.5ft 5s 22 29 mph 1016.2mb 61f 63f
10:04pm 5ft 5s 25 29 mph 1016.3mb 61f 63f
8:04pm 4.5ft 11s 22 27 mph 1016.8mb 60f 63f
7:04pm 4ft 4s 18 20 mph 1016.8mb 60f 62f
6:04pm 2.5ft 4s 16 18 mph 1017.1mb 61f 63f
5:04pm 2.5ft 5s 13 16 mph 1017.7mb 61f 62f
4:04pm 3.5ft 11s 11 13 mph 1018.2mb 60f 61f
3:04pm 3.5ft 11s 11 13 mph 1018.4mb 60f 60f
2:04pm 3.5ft 6s 11 13 mph 1018.7mb 62f 60f
1:04pm 3.5ft 6s 13 16 mph 1019.1mb 63f 60f
12:04pm 3.5ft 5s 13 16 mph 1019.2mb 66f 60f
11:04am  -   -  11 13 mph 1019.4mb - 59f
10:04am 4ft 6s 11 13 mph 1019.2mb 66f 59f
9:04am 4.5ft 6s 7
mph
1019.2mb 62f 58f
8:04am 4ft 6s 7 9 mph 1018.6mb 62f 57f
7:04am 4ft 6s 13 16 mph 1018.7mb 61f 57f
6:04am 4.5ft 6s 13 16 mph 1018.4mb 61f 57f
5:04am 5ft 11s 16 18 mph 1018.1mb 61f 57f
4:04am 6ft 6s 16 20 mph 1017.7mb 61f 57f
3:04am 7ft 6s 16 20 mph 1017.8mb 61f 57f
2:04am 7ft 6s 18 22 mph 1017.6mb 63f 57f
1:04am 7ft 8s 18 22 mph 1017.1mb 64f 56f
12:04am 7ft 6s 18 22 mph 1016.8mb 64f 56f
Mon 10/20 11:04pm 7.5ft 6s 18 22 mph 1016.6mb 63f 55f
10:04pm 7ft 8s 18 22 mph 1016.4mb 62f 55f
7:04pm 7ft 8s 22 27 mph 1015.4mb 61f 53f
6:04pm 6.5ft 8s 20 27 mph 1015mb 61f 52f
5:04pm 7ft 6s 22 27 mph 1015mb 61f 53f
3:04pm 9ft 8s 20 25 mph 1014.4mb 62f 53f
2:04pm 8ft 8s 20 25 mph 1014.2mb 61f 53f
1:04pm 11.5ft 8s 20 29 mph 1014.5mb 62f 53f
12:04pm 10ft 8s 22 27 mph 1014.5mb 65f 53f
11:04am 10ft 8s 25 31 mph 1014.1mb 65f 52f
10:04am 8ft 8s 25 34 mph 1013.6mb 65f 52f
9:04am 9.5ft 8s 27 34 mph 1012.7mb 64f 51f
8:04am 10ft 8s  -  mph - 62f -
7:04am 11.5ft 8s  -  mph - 60f -
3:04am 11ft 8s 27 31 mph 1007mb 61f 52f
2:04am 11ft 8s 27 34 mph 1006.7mb 62f 52f
1:04am 10ft 6s 27 36 mph 1006mb 61f 52f
12:04am 8.5ft 6s 29 36 mph 1005.3mb 62f 52f
Sun 10/19 11:04pm 7ft 6s 27 34 mph 1003.9mb 61f 54f
10:04pm 5.5ft 5s 25 31 mph 1003.9mb 61f 55f
8:04pm  -   -  18 22 mph 1002.9mb 61f 56f
7:04pm 6ft 11s 16 18 mph 1002.6mb 61f 57f
5:04pm 6.5ft 11s 11 13 mph 1002.9mb 61f 59f
4:04pm 7ft 11s 16 18 mph 1003.4mb 61f 60f
2:04pm  -   -  13 16 mph 1003.7mb 61f 60f
1:04pm 8ft 11s 11 13 mph 1004.1mb 62f 61f
12:04pm 3.5ft 5s 13 16 mph 1003.8mb 62f 61f
11:04am 7ft 11s 18 20 mph 1005mb 62f 61f
10:04am  -   -  16 20 mph 1004.6mb 61f 61f
9:04am  -   -  13 16 mph 1004.1mb 61f 61f
8:04am 6.5ft 11s 13 16 mph 1003.2mb 62f 61f
5:04am  -   -  18 25 mph 1001.2mb 62f 61f
4:04am 7ft 11s 16 20 mph 1000.8mb 61f 62f
3:04am  -   -  16 20 mph 1000.9mb 61f 62f
2:04am  -   -  16 18 mph 1000.6mb 61f 62f
1:04am 13ft 16s 13 16 mph 1000.3mb 61f 62f
12:04am 13ft 16s 13 18 mph 1000.3mb 63f 62f
Sat 10/18 11:04pm  -   -  13 16 mph 1000.8mb 66f 63f
8:04pm 9ft 16s 9 11 mph 1000.6mb 65f 63f
7:04pm 11ft 16s 7 9 mph 1000.6mb 66f 63f
6:04pm 9ft 16s 4 7 mph 1000.6mb 63f 64f
5:04pm  -   -  2 4 mph 1000.9mb 62f 65f
4:04pm 10ft 16s 2 4 mph 1001.3mb 62f 65f
3:04pm 11.5ft 16s 2 4 mph 1002mb 62f 63f